עמוד ראשי
METAR-TAF:

METAR-TAF

שדות תעופה :

Nouméa / La Tontouta, קלדוניה החדשה

קו רוחב: 22-01S, קו אורך: 166-13E, גובה: 16מטר

תצפית מזג אוויר נוכחית

הדו"ח נערך לפני 12דקות, בשעה 10:30 UTC
רוח רגועה
טמפרטורת 18 צלסיוס
לחות 83%
לחץ 1014 hPa
ראות 10 קילומטר או יותר
עננים בינוניים בגובה 5600רגל

METAR: NWWW 151030Z AUTO 00000KT 9999 BKN056 18/15 Q1014 NOSIG

זמן: 21:42 (10:42 UTC)

תחזית

הדו"ח נערך לפני 5 שעות ו 42דקות, בשעה 05:00 UTC
תחזית בתוקף מ 15 ב 06 UTC עד 16 ב 06 UTC
רוח 8קשר מכיוון מערב
ראות 10 קילומטר או יותר
מעט עננים בגובה 3000רגל
עננים פזורים בגובה 4500רגל
זמנית מ -
15 ב 06 UTC עד 15 ב 10 UTC
עננים בינוניים בגובה 1400רגל
מעט עננים בגובה 2000רגל , קומולוס מיגדלי.
ממטרי גשם
הסתברות 30% :
זמנית מ -
15 ב 14 UTC עד 15 ב 19 UTC
ראות: 4000מטר
אד,

TAF: NWWW 150500Z 1506/1606 28008KT 9999 FEW030 SCT045 TEMPO 1506/1510 SHRA BKN014 FEW020TCU PROB30 TEMPO 1514/1519 4000 BR

תצפיות ותחזיות מזג אוויר לגבי יותר מ- 4,000 שדות תעופה ברחבי העולם. דוחות METAR ו- TAF.

התחנות הזמינות מסומנות בנקודות צהובות ואדומות על גבי המפה.

העבר את העכבר לנקודה הצבעונית על מנת לראות את שם התחנה.

לאחר מכן, לחץ כדי לראות את תוכן ואת תחזיות מזג האוויר.

כדי לשנות את המפה: לחץ על הכפתורים הירוקים עם הפלוס השחור כדי להתקרב; על הכפתור הירוק עם המקף כדי להתרחק; או בחיצים הירוקים למפות סמוכות.


METAR-TAF: